sensor_id;sensor_type;location;lat;lon;timestamp;pressure;altitude;pressure_sealevel;temperature;humidity
21728;BME280;11026;50.560;17.852;2022-12-31T00:01:23;99454.50;;;6.70;90.15
21728;BME280;11026;50.560;17.852;2022-12-31T00:03:51;99453.44;;;6.75;89.94
21728;BME280;11026;50.560;17.852;2022-12-31T00:06:30;99471.72;;;6.80;90.10
21728;BME280;11026;50.560;17.852;2022-12-31T00:09:03;99481.22;;;6.84;89.96
21728;BME280;11026;50.560;17.852;2022-12-31T00:11:32;99471.47;;;6.89;89.67
21728;BME280;11026;50.560;17.852;2022-12-31T00:13:59;99483.63;;;6.93;89.61
21728;BME280;11026;50.560;17.852;2022-12-31T00:16:30;99476.59;;;6.92;89.59
21728;BME280;11026;50.560;17.852;2022-12-31T00:18:59;99473.09;;;6.93;89.76
21728;BME280;11026;50.560;17.852;2022-12-31T00:21:29;99469.81;;;6.85;89.59
21728;BME280;11026;50.560;17.852;2022-12-31T00:23:57;99480.38;;;6.83;89.57
21728;BME280;11026;50.560;17.852;2022-12-31T00:26:37;99456.94;;;6.76;89.34
21728;BME280;11026;50.560;17.852;2022-12-31T00:29:04;99479.75;;;6.75;89.53
21728;BME280;11026;50.560;17.852;2022-12-31T00:31:35;99458.03;;;6.69;89.78
21728;BME280;11026;50.560;17.852;2022-12-31T00:34:03;99474.97;;;6.58;90.11
21728;BME280;11026;50.560;17.852;2022-12-31T00:36:34;99469.94;;;6.51;91.21
21728;BME280;11026;50.560;17.852;2022-12-31T00:39:05;99474.34;;;6.50;91.60
21728;BME280;11026;50.560;17.852;2022-12-31T00:41:33;99464.84;;;6.45;91.92
21728;BME280;11026;50.560;17.852;2022-12-31T00:44:02;99458.91;;;6.38;92.60
21728;BME280;11026;50.560;17.852;2022-12-31T00:46:30;99470.44;;;6.32;93.89
21728;BME280;11026;50.560;17.852;2022-12-31T00:48:59;99451.53;;;6.20;95.00
21728;BME280;11026;50.560;17.852;2022-12-31T00:51:27;99456.94;;;6.13;96.04
21728;BME280;11026;50.560;17.852;2022-12-31T00:53:56;99453.72;;;6.04;97.40
21728;BME280;11026;50.560;17.852;2022-12-31T00:56:26;99465.34;;;5.95;98.75
21728;BME280;11026;50.560;17.852;2022-12-31T00:58:55;99453.22;;;5.88;99.91
21728;BME280;11026;50.560;17.852;2022-12-31T01:01:25;99448.13;;;5.82;100.00
21728;BME280;11026;50.560;17.852;2022-12-31T01:04:00;99445.56;;;5.80;100.00
21728;BME280;11026;50.560;17.852;2022-12-31T01:06:29;99444.75;;;5.77;100.00
21728;BME280;11026;50.560;17.852;2022-12-31T01:08:57;99450.84;;;5.79;100.00
21728;BME280;11026;50.560;17.852;2022-12-31T01:11:25;99445.59;;;5.79;100.00
21728;BME280;11026;50.560;17.852;2022-12-31T01:14:00;99454.34;;;5.78;100.00
21728;BME280;11026;50.560;17.852;2022-12-31T01:16:41;99458.78;;;5.76;100.00
21728;BME280;11026;50.560;17.852;2022-12-31T01:19:11;99450.09;;;5.74;100.00
21728;BME280;11026;50.560;17.852;2022-12-31T01:21:40;99454.34;;;5.79;100.00
21728;BME280;11026;50.560;17.852;2022-12-31T01:24:09;99462.22;;;5.79;100.00
21728;BME280;11026;50.560;17.852;2022-12-31T01:26:43;99474.38;;;5.82;100.00
21728;BME280;11026;50.560;17.852;2022-12-31T01:29:11;99472.50;;;5.87;100.00
21728;BME280;11026;50.560;17.852;2022-12-31T01:31:39;99488.19;;;5.90;100.00
21728;BME280;11026;50.560;17.852;2022-12-31T01:34:08;99488.19;;;5.90;100.00
21728;BME280;11026;50.560;17.852;2022-12-31T01:36:36;99475.00;;;5.93;100.00
21728;BME280;11026;50.560;17.852;2022-12-31T01:39:07;99463.50;;;5.97;100.00
21728;BME280;11026;50.560;17.852;2022-12-31T01:41:40;99460.88;;;5.99;100.00
21728;BME280;11026;50.560;17.852;2022-12-31T01:49:24;99477.28;;;6.05;99.39
21728;BME280;11026;50.560;17.852;2022-12-31T01:52:19;99469.47;;;6.04;99.32
21728;BME280;11026;50.560;17.852;2022-12-31T01:54:57;99469.41;;;6.05;99.13
21728;BME280;11026;50.560;17.852;2022-12-31T01:57:32;99464.94;;;6.10;98.75
21728;BME280;11026;50.560;17.852;2022-12-31T02:00:02;99446.63;;;6.07;98.67
21728;BME280;11026;50.560;17.852;2022-12-31T02:02:30;99450.06;;;6.09;98.42
21728;BME280;11026;50.560;17.852;2022-12-31T02:04:59;99448.41;;;6.07;98.43
21728;BME280;11026;50.560;17.852;2022-12-31T02:07:29;99453.66;;;6.07;98.11
21728;BME280;11026;50.560;17.852;2022-12-31T02:09:56;99473.78;;;6.06;97.96
21728;BME280;11026;50.560;17.852;2022-12-31T02:12:24;99476.44;;;6.05;97.61
21728;BME280;11026;50.560;17.852;2022-12-31T02:14:52;99460.66;;;6.06;97.42
21728;BME280;11026;50.560;17.852;2022-12-31T02:17:38;99472.03;;;6.05;97.11
21728;BME280;11026;50.560;17.852;2022-12-31T02:20:18;99487.81;;;6.05;96.95
21728;BME280;11026;50.560;17.852;2022-12-31T02:28:55;99491.41;;;6.01;96.66
21728;BME280;11026;50.560;17.852;2022-12-31T02:31:51;99493.06;;;6.05;96.60
21728;BME280;11026;50.560;17.852;2022-12-31T02:34:30;99502.69;;;6.05;96.68
21728;BME280;11026;50.560;17.852;2022-12-31T02:37:00;99494.88;;;6.03;96.53
21728;BME280;11026;50.560;17.852;2022-12-31T02:39:30;99495.72;;;6.04;96.45
21728;BME280;11026;50.560;17.852;2022-12-31T02:41:59;99503.66;;;6.02;96.70
21728;BME280;11026;50.560;17.852;2022-12-31T02:44:32;99502.75;;;6.03;96.83
21728;BME280;11026;50.560;17.852;2022-12-31T02:55:48;99503.56;;;6.05;97.34
21728;BME280;11026;50.560;17.852;2022-12-31T02:58:33;99499.19;;;6.06;96.89
21728;BME280;11026;50.560;17.852;2022-12-31T03:01:27;99496.53;;;6.07;97.23
21728;BME280;11026;50.560;17.852;2022-12-31T03:04:15;99493.88;;;6.07;97.17
21728;BME280;11026;50.560;17.852;2022-12-31T03:07:13;99489.38;;;6.12;96.88
21728;BME280;11026;50.560;17.852;2022-12-31T03:09:41;99497.25;;;6.12;96.50
21728;BME280;11026;50.560;17.852;2022-12-31T03:12:10;99497.13;;;6.17;96.31
21728;BME280;11026;50.560;17.852;2022-12-31T03:14:59;99491.78;;;6.22;96.55
21728;BME280;11026;50.560;17.852;2022-12-31T03:17:27;99506.56;;;6.26;95.95
21728;BME280;11026;50.560;17.852;2022-12-31T03:19:55;99502.09;;;6.28;95.49
21728;BME280;11026;50.560;17.852;2022-12-31T03:22:42;99505.44;;;6.34;95.41
21728;BME280;11026;50.560;17.852;2022-12-31T03:25:14;99518.50;;;6.36;95.28
21728;BME280;11026;50.560;17.852;2022-12-31T03:28:22;99515.81;;;6.39;94.85
21728;BME280;11026;50.560;17.852;2022-12-31T03:30:58;99502.59;;;6.42;94.35
21728;BME280;11026;50.560;17.852;2022-12-31T03:33:34;99508.72;;;6.41;94.34
21728;BME280;11026;50.560;17.852;2022-12-31T03:36:11;99505.34;;;6.37;94.12
21728;BME280;11026;50.560;17.852;2022-12-31T03:38:39;99507.09;;;6.37;94.09
21728;BME280;11026;50.560;17.852;2022-12-31T03:41:09;99511.47;;;6.38;93.98
21728;BME280;11026;50.560;17.852;2022-12-31T03:43:37;99504.56;;;6.34;94.08
21728;BME280;11026;50.560;17.852;2022-12-31T03:46:04;99516.72;;;6.38;93.87
21728;BME280;11026;50.560;17.852;2022-12-31T03:48:33;99513.09;;;6.42;93.67
21728;BME280;11026;50.560;17.852;2022-12-31T03:51:00;99527.88;;;6.46;93.56
21728;BME280;11026;50.560;17.852;2022-12-31T03:53:29;99516.47;;;6.47;93.48
21728;BME280;11026;50.560;17.852;2022-12-31T03:55:56;99525.34;;;6.43;93.36
21728;BME280;11026;50.560;17.852;2022-12-31T03:58:25;99537.41;;;6.50;93.25
21728;BME280;11026;50.560;17.852;2022-12-31T04:00:52;99538.19;;;6.54;93.04
21728;BME280;11026;50.560;17.852;2022-12-31T04:03:19;99539.97;;;6.53;93.07
21728;BME280;11026;50.560;17.852;2022-12-31T04:05:54;99533.81;;;6.53;92.96
21728;BME280;11026;50.560;17.852;2022-12-31T04:08:22;99541.50;;;6.60;92.49
21728;BME280;11026;50.560;17.852;2022-12-31T04:10:50;99541.50;;;6.60;92.11
21728;BME280;11026;50.560;17.852;2022-12-31T04:13:19;99544.09;;;6.62;91.83
21728;BME280;11026;50.560;17.852;2022-12-31T04:15:49;99552.66;;;6.69;91.79
21728;BME280;11026;50.560;17.852;2022-12-31T04:18:17;99549.16;;;6.70;91.44
21728;BME280;11026;50.560;17.852;2022-12-31T04:20:45;99549.91;;;6.73;91.34
21728;BME280;11026;50.560;17.852;2022-12-31T04:23:12;99555.75;;;6.83;90.93
21728;BME280;11026;50.560;17.852;2022-12-31T04:25:40;99552.22;;;6.84;90.65
21728;BME280;11026;50.560;17.852;2022-12-31T04:28:07;99554.84;;;6.84;90.48
21728;BME280;11026;50.560;17.852;2022-12-31T04:30:34;99543.34;;;6.88;90.18
21728;BME280;11026;50.560;17.852;2022-12-31T04:33:02;99557.47;;;6.85;90.49
21728;BME280;11026;50.560;17.852;2022-12-31T04:35:29;99557.41;;;6.87;90.29
21728;BME280;11026;50.560;17.852;2022-12-31T04:37:57;99562.66;;;6.87;90.12
21728;BME280;11026;50.560;17.852;2022-12-31T04:40:32;99548.59;;;6.88;89.62
21728;BME280;11026;50.560;17.852;2022-12-31T04:42:59;99547.72;;;6.89;90.00
21728;BME280;11026;50.560;17.852;2022-12-31T04:45:28;99555.50;;;6.92;89.76
21728;BME280;11026;50.560;17.852;2022-12-31T04:47:55;99537.09;;;6.92;89.75
21728;BME280;11026;50.560;17.852;2022-12-31T04:50:23;99532.75;;;6.91;89.82
21728;BME280;11026;50.560;17.852;2022-12-31T04:52:51;99538.00;;;6.91;89.94
21728;BME280;11026;50.560;17.852;2022-12-31T04:55:20;99530.97;;;6.92;89.84
21728;BME280;11026;50.560;17.852;2022-12-31T04:57:47;99532.66;;;6.94;90.17
21728;BME280;11026;50.560;17.852;2022-12-31T05:00:15;99530.94;;;6.93;89.98
21728;BME280;11026;50.560;17.852;2022-12-31T05:02:42;99523.78;;;6.98;90.14
21728;BME280;11026;50.560;17.852;2022-12-31T05:05:10;99513.63;;;6.86;90.40
21728;BME280;11026;50.560;17.852;2022-12-31T05:07:37;99510.00;;;6.90;90.66
21728;BME280;11026;50.560;17.852;2022-12-31T05:10:05;99509.06;;;6.91;90.84
21728;BME280;11026;50.560;17.852;2022-12-31T05:12:33;99519.50;;;6.94;90.98
21728;BME280;11026;50.560;17.852;2022-12-31T05:15:00;99504.97;;;6.81;91.49
21728;BME280;11026;50.560;17.852;2022-12-31T05:17:27;99528.88;;;6.73;92.16
21728;BME280;11026;50.560;17.852;2022-12-31T05:19:55;99523.31;;;6.84;92.33
21728;BME280;11026;50.560;17.852;2022-12-31T05:22:22;99530.53;;;6.77;92.18
21728;BME280;11026;50.560;17.852;2022-12-31T05:24:57;99540.84;;;6.83;92.77
21728;BME280;11026;50.560;17.852;2022-12-31T05:27:26;99545.25;;;6.83;92.93
21728;BME280;11026;50.560;17.852;2022-12-31T05:29:54;99553.00;;;6.87;93.29
21728;BME280;11026;50.560;17.852;2022-12-31T05:32:21;99557.41;;;6.87;93.60
21728;BME280;11026;50.560;17.852;2022-12-31T05:34:51;99551.06;;;6.94;93.58
21728;BME280;11026;50.560;17.852;2022-12-31T05:37:19;99565.00;;;6.98;93.68
21728;BME280;11026;50.560;17.852;2022-12-31T05:39:47;99562.72;;;6.85;94.30
21728;BME280;11026;50.560;17.852;2022-12-31T05:42:14;99565.22;;;6.90;94.63
21728;BME280;11026;50.560;17.852;2022-12-31T05:44:42;99560.88;;;6.87;94.65
21728;BME280;11026;50.560;17.852;2022-12-31T05:47:09;99548.59;;;6.88;94.88
21728;BME280;11026;50.560;17.852;2022-12-31T05:49:38;99546.75;;;6.92;94.79
21728;BME280;11026;50.560;17.852;2022-12-31T05:52:07;99537.09;;;6.92;94.66
21728;BME280;11026;50.560;17.852;2022-12-31T05:54:38;99544.94;;;6.94;94.74
21728;BME280;11026;50.560;17.852;2022-12-31T05:57:06;99547.38;;;7.00;94.42
21728;BME280;11026;50.560;17.852;2022-12-31T05:59:34;99546.38;;;7.04;94.33
21728;BME280;11026;50.560;17.852;2022-12-31T06:02:01;99552.41;;;7.09;94.10
21728;BME280;11026;50.560;17.852;2022-12-31T06:04:29;99554.06;;;7.11;94.25
21728;BME280;11026;50.560;17.852;2022-12-31T06:06:58;99547.03;;;7.12;93.83
21728;BME280;11026;50.560;17.852;2022-12-31T06:09:25;99551.28;;;7.16;93.69
21728;BME280;11026;50.560;17.852;2022-12-31T06:11:53;99546.72;;;7.23;93.43
21728;BME280;11026;50.560;17.852;2022-12-31T06:14:22;99548.41;;;7.25;92.95
21728;BME280;11026;50.560;17.852;2022-12-31T06:16:49;99557.94;;;7.28;93.03
21728;BME280;11026;50.560;17.852;2022-12-31T06:19:16;99553.38;;;7.34;92.47
21728;BME280;11026;50.560;17.852;2022-12-31T06:21:44;99551.59;;;7.35;92.36
21728;BME280;11026;50.560;17.852;2022-12-31T06:24:12;99550.88;;;7.30;91.93
21728;BME280;11026;50.560;17.852;2022-12-31T06:26:40;99545.63;;;7.30;91.51
21728;BME280;11026;50.560;17.852;2022-12-31T06:29:07;99550.88;;;7.30;91.36
21728;BME280;11026;50.560;17.852;2022-12-31T06:31:35;99562.41;;;7.26;91.28
21728;BME280;11026;50.560;17.852;2022-12-31T06:34:04;99559.06;;;7.21;91.27
21728;BME280;11026;50.560;17.852;2022-12-31T06:36:31;99556.53;;;7.16;91.35
21728;BME280;11026;50.560;17.852;2022-12-31T06:39:00;99567.22;;;7.11;91.34
21728;BME280;11026;50.560;17.852;2022-12-31T06:41:27;99568.34;;;7.03;91.60
21728;BME280;11026;50.560;17.852;2022-12-31T06:43:54;99562.22;;;7.02;91.71
21728;BME280;11026;50.560;17.852;2022-12-31T06:46:22;99562.38;;;6.96;91.73
21728;BME280;11026;50.560;17.852;2022-12-31T06:48:49;99558.03;;;6.95;91.53
21728;BME280;11026;50.560;17.852;2022-12-31T06:51:19;99564.47;;;6.85;91.62
21728;BME280;11026;50.560;17.852;2022-12-31T06:53:48;99563.72;;;6.81;92.19
21728;BME280;11026;50.560;17.852;2022-12-31T06:56:18;99568.91;;;6.83;92.10
21728;BME280;11026;50.560;17.852;2022-12-31T06:58:47;99570.16;;;6.70;91.79
21728;BME280;11026;50.560;17.852;2022-12-31T07:01:46;99587.59;;;6.74;92.52
21728;BME280;11026;50.560;17.852;2022-12-31T07:07:07;99591.16;;;6.71;93.25
21728;BME280;11026;50.560;17.852;2022-12-31T07:15:13;99591.03;;;6.76;93.73
21728;BME280;11026;50.560;17.852;2022-12-31T07:18:06;99597.06;;;6.79;93.85
21728;BME280;11026;50.560;17.852;2022-12-31T07:20:46;99611.97;;;6.79;93.81
21728;BME280;11026;50.560;17.852;2022-12-31T07:23:13;99604.75;;;6.87;94.04
21728;BME280;11026;50.560;17.852;2022-12-31T07:25:48;99598.22;;;7.00;93.62
21728;BME280;11026;50.560;17.852;2022-12-31T07:34:09;99566.00;;;6.92;93.45
21728;BME280;11026;50.560;17.852;2022-12-31T07:48:37;99579.69;;;7.34;93.71
21728;BME280;11026;50.560;17.852;2022-12-31T07:51:05;99591.00;;;7.38;93.43
21728;BME280;11026;50.560;17.852;2022-12-31T07:53:33;99598.69;;;7.44;93.42
21728;BME280;11026;50.560;17.852;2022-12-31T07:56:03;99608.31;;;7.45;93.63
21728;BME280;11026;50.560;17.852;2022-12-31T07:59:01;99614.94;;;7.58;93.56
21728;BME280;11026;50.560;17.852;2022-12-31T08:02:00;99629.56;;;7.69;93.10
21728;BME280;11026;50.560;17.852;2022-12-31T08:10:09;99595.47;;;7.92;92.72
21728;BME280;11026;50.560;17.852;2022-12-31T08:12:46;99597.69;;;8.04;92.64
21728;BME280;11026;50.560;17.852;2022-12-31T08:15:18;99601.72;;;8.14;92.41
21728;BME280;11026;50.560;17.852;2022-12-31T08:17:48;99602.19;;;8.27;92.17
21728;BME280;11026;50.560;17.852;2022-12-31T08:20:17;99594.94;;;8.34;92.04
21728;BME280;11026;50.560;17.852;2022-12-31T08:23:05;99600.69;;;8.47;91.41
21728;BME280;11026;50.560;17.852;2022-12-31T08:28:24;99608.03;;;8.64;90.51
21728;BME280;11026;50.560;17.852;2022-12-31T08:31:01;99597.34;;;8.67;90.10
21728;BME280;11026;50.560;17.852;2022-12-31T08:41:52;99625.34;;;8.96;89.70
21728;BME280;11026;50.560;17.852;2022-12-31T08:47:25;99626.88;;;9.03;89.81
21728;BME280;11026;50.560;17.852;2022-12-31T08:50:01;99631.16;;;9.05;90.19
21728;BME280;11026;50.560;17.852;2022-12-31T08:52:28;99610.78;;;9.09;90.50
21728;BME280;11026;50.560;17.852;2022-12-31T08:54:56;99609.72;;;9.15;90.41
21728;BME280;11026;50.560;17.852;2022-12-31T09:00:17;99601.56;;;9.21;90.25
21728;BME280;11026;50.560;17.852;2022-12-31T09:02:57;99606.78;;;9.22;90.01
21728;BME280;11026;50.560;17.852;2022-12-31T09:05:53;99610.31;;;9.23;89.66
21728;BME280;11026;50.560;17.852;2022-12-31T09:08:46;99617.19;;;9.27;89.46
21728;BME280;11026;50.560;17.852;2022-12-31T09:17:03;99624.06;;;9.54;86.63
21728;BME280;11026;50.560;17.852;2022-12-31T09:19:35;99623.59;;;9.43;87.36
21728;BME280;11026;50.560;17.852;2022-12-31T09:22:03;99624.63;;;9.39;88.11
21728;BME280;11026;50.560;17.852;2022-12-31T09:24:30;99621.16;;;9.39;89.42
21728;BME280;11026;50.560;17.852;2022-12-31T09:27:27;99607.22;;;9.33;91.24
21728;BME280;11026;50.560;17.852;2022-12-31T09:30:13;99602.13;;;9.29;92.15
21728;BME280;11026;50.560;17.852;2022-12-31T09:36:15;99601.91;;;9.35;92.33
21728;BME280;11026;50.560;17.852;2022-12-31T09:48:22;99611.63;;;9.34;93.71
21728;BME280;11026;50.560;17.852;2022-12-31T09:51:06;99612.88;;;9.48;93.41
21728;BME280;11026;50.560;17.852;2022-12-31T09:56:28;99612.22;;;9.65;92.18
21728;BME280;11026;50.560;17.852;2022-12-31T10:02:36;99610.25;;;10.36;88.13
21728;BME280;11026;50.560;17.852;2022-12-31T10:05:26;99607.69;;;10.54;87.12
21728;BME280;11026;50.560;17.852;2022-12-31T10:10:57;99607.88;;;12.05;80.48
21728;BME280;11026;50.560;17.852;2022-12-31T10:17:00;99609.25;;;12.32;75.59
21728;BME280;11026;50.560;17.852;2022-12-31T10:19:41;99600.88;;;12.22;75.63
21728;BME280;11026;50.560;17.852;2022-12-31T10:22:41;99600.34;;;12.33;76.71
21728;BME280;11026;50.560;17.852;2022-12-31T10:25:32;99597.63;;;12.69;73.90
21728;BME280;11026;50.560;17.852;2022-12-31T10:31:16;99585.34;;;13.66;69.89
21728;BME280;11026;50.560;17.852;2022-12-31T10:34:13;99583.56;;;13.17;71.23
21728;BME280;11026;50.560;17.852;2022-12-31T10:36:54;99580.28;;;13.12;72.64
21728;BME280;11026;50.560;17.852;2022-12-31T10:39:50;99580.97;;;13.00;73.86
21728;BME280;11026;50.560;17.852;2022-12-31T10:48:02;99587.00;;;13.19;73.13
21728;BME280;11026;50.560;17.852;2022-12-31T10:54:12;99598.88;;;12.79;74.20
21728;BME280;11026;50.560;17.852;2022-12-31T11:14:27;99583.41;;;12.35;78.54
21728;BME280;11026;50.560;17.852;2022-12-31T11:20:18;99582.41;;;12.38;79.75
21728;BME280;11026;50.560;17.852;2022-12-31T11:28:41;99572.34;;;12.44;81.20
21728;BME280;11026;50.560;17.852;2022-12-31T11:31:27;99572.72;;;12.54;81.65
21728;BME280;11026;50.560;17.852;2022-12-31T11:42:20;99568.38;;;13.03;82.34
21728;BME280;11026;50.560;17.852;2022-12-31T11:45:11;99563.34;;;13.15;82.06
21728;BME280;11026;50.560;17.852;2022-12-31T11:53:24;99572.59;;;13.08;79.45
21728;BME280;11026;50.560;17.852;2022-12-31T11:56:05;99571.84;;;12.88;80.50
21728;BME280;11026;50.560;17.852;2022-12-31T11:58:36;99577.16;;;12.71;81.40
21728;BME280;11026;50.560;17.852;2022-12-31T12:03:55;99564.00;;;12.52;81.92
21728;BME280;11026;50.560;17.852;2022-12-31T12:06:27;99561.59;;;12.47;81.67
21728;BME280;11026;50.560;17.852;2022-12-31T12:09:00;99557.19;;;12.46;81.54
21728;BME280;11026;50.560;17.852;2022-12-31T12:11:34;99560.03;;;12.43;82.07
21728;BME280;11026;50.560;17.852;2022-12-31T12:14:35;99544.41;;;12.37;81.81
21728;BME280;11026;50.560;17.852;2022-12-31T12:17:07;99544.41;;;12.37;81.80
21728;BME280;11026;50.560;17.852;2022-12-31T12:19:42;99547.38;;;12.48;81.21
21728;BME280;11026;50.560;17.852;2022-12-31T12:22:21;99547.53;;;12.45;81.25
21728;BME280;11026;50.560;17.852;2022-12-31T12:24:54;99550.44;;;12.41;80.92
21728;BME280;11026;50.560;17.852;2022-12-31T12:27:28;99554.88;;;12.40;80.85
21728;BME280;11026;50.560;17.852;2022-12-31T12:29:57;99558.38;;;12.41;80.71
21728;BME280;11026;50.560;17.852;2022-12-31T12:32:59;99563.28;;;12.31;80.50
21728;BME280;11026;50.560;17.852;2022-12-31T12:35:32;99560.09;;;12.24;80.97
21728;BME280;11026;50.560;17.852;2022-12-31T12:38:06;99565.41;;;12.24;80.37
21728;BME280;11026;50.560;17.852;2022-12-31T12:40:39;99559.41;;;12.21;80.62
21728;BME280;11026;50.560;17.852;2022-12-31T12:43:22;99562.72;;;12.07;80.76
21728;BME280;11026;50.560;17.852;2022-12-31T12:45:50;99558.03;;;11.95;81.63
21728;BME280;11026;50.560;17.852;2022-12-31T12:48:41;99553.28;;;11.82;82.22
21728;BME280;11026;50.560;17.852;2022-12-31T12:54:20;99542.16;;;11.76;82.90
21728;BME280;11026;50.560;17.852;2022-12-31T13:00:00;99556.97;;;11.80;83.18
21728;BME280;11026;50.560;17.852;2022-12-31T13:02:57;99552.38;;;11.84;82.94
21728;BME280;11026;50.560;17.852;2022-12-31T13:11:18;99548.72;;;11.67;84.40
21728;BME280;11026;50.560;17.852;2022-12-31T13:14:22;99558.84;;;11.59;85.06
21728;BME280;11026;50.560;17.852;2022-12-31T13:17:31;99552.69;;;11.58;85.29
21728;BME280;11026;50.560;17.852;2022-12-31T13:20:25;99553.00;;;11.52;85.69
21728;BME280;11026;50.560;17.852;2022-12-31T13:25:55;99555.22;;;11.43;86.18
21728;BME280;11026;50.560;17.852;2022-12-31T13:28:25;99549.19;;;11.39;85.59
21728;BME280;11026;50.560;17.852;2022-12-31T13:30:58;99554.47;;;11.20;86.62
21728;BME280;11026;50.560;17.852;2022-12-31T13:33:36;99553.84;;;11.15;87.18
21728;BME280;11026;50.560;17.852;2022-12-31T13:36:14;99551.16;;;11.17;87.56
21728;BME280;11026;50.560;17.852;2022-12-31T13:38:50;99557.22;;;11.19;87.32
21728;BME280;11026;50.560;17.852;2022-12-31T13:41:33;99563.13;;;11.24;87.31
21728;BME280;11026;50.560;17.852;2022-12-31T13:44:27;99561.56;;;11.20;87.59
21728;BME280;11026;50.560;17.852;2022-12-31T13:47:18;99563.09;;;11.25;87.99
21728;BME280;11026;50.560;17.852;2022-12-31T13:50:16;99551.91;;;11.19;88.10
21728;BME280;11026;50.560;17.852;2022-12-31T13:53:37;99557.78;;;11.06;88.05
21728;BME280;11026;50.560;17.852;2022-12-31T13:55:50;99562.63;;;11.16;88.89
21728;BME280;11026;50.560;17.852;2022-12-31T13:58:29;99559.44;;;11.09;88.59
21728;BME280;11026;50.560;17.852;2022-12-31T14:01:08;99566.50;;;11.08;89.29
21728;BME280;11026;50.560;17.852;2022-12-31T14:06:50;99556.94;;;11.25;88.87
21728;BME280;11026;50.560;17.852;2022-12-31T14:09:23;99563.34;;;11.19;89.42
21728;BME280;11026;50.560;17.852;2022-12-31T14:14:47;99568.53;;;11.22;89.33
21728;BME280;11026;50.560;17.852;2022-12-31T14:17:29;99564.22;;;11.20;89.44
21728;BME280;11026;50.560;17.852;2022-12-31T14:23:23;99563.72;;;11.12;89.05
21728;BME280;11026;50.560;17.852;2022-12-31T14:26:00;99567.16;;;11.14;90.91
21728;BME280;11026;50.560;17.852;2022-12-31T14:29:05;99574.22;;;11.32;91.60
21728;BME280;11026;50.560;17.852;2022-12-31T14:31:54;99573.97;;;11.76;91.89
21728;BME280;11026;50.560;17.852;2022-12-31T14:34:48;99562.53;;;12.12;91.37
21728;BME280;11026;50.560;17.852;2022-12-31T14:37:36;99565.63;;;12.37;89.64
21728;BME280;11026;50.560;17.852;2022-12-31T14:42:59;99566.16;;;12.78;87.60
21728;BME280;11026;50.560;17.852;2022-12-31T14:51:17;99590.88;;;12.96;85.91
21728;BME280;11026;50.560;17.852;2022-12-31T14:53:52;99592.06;;;12.91;85.80
21728;BME280;11026;50.560;17.852;2022-12-31T14:59:29;99598.78;;;13.14;84.71
21728;BME280;11026;50.560;17.852;2022-12-31T15:02:22;99600.75;;;13.27;83.65
21728;BME280;11026;50.560;17.852;2022-12-31T15:04:50;99594.09;;;13.36;83.00
21728;BME280;11026;50.560;17.852;2022-12-31T15:10:20;99586.47;;;13.62;81.10
21728;BME280;11026;50.560;17.852;2022-12-31T15:13:05;99601.81;;;13.72;80.16
21728;BME280;11026;50.560;17.852;2022-12-31T15:24:27;99609.50;;;13.29;79.45
21728;BME280;11026;50.560;17.852;2022-12-31T15:27:02;99611.06;;;13.16;79.39
21728;BME280;11026;50.560;17.852;2022-12-31T15:29:49;99611.63;;;13.05;79.90
21728;BME280;11026;50.560;17.852;2022-12-31T15:32:19;99617.28;;;12.82;80.36
21728;BME280;11026;50.560;17.852;2022-12-31T15:35:03;99625.78;;;12.54;81.16
21728;BME280;11026;50.560;17.852;2022-12-31T15:37:34;99625.84;;;12.35;81.93
21728;BME280;11026;50.560;17.852;2022-12-31T15:40:21;99621.38;;;12.18;83.32
21728;BME280;11026;50.560;17.852;2022-12-31T15:45:45;99632.09;;;11.98;84.11
21728;BME280;11026;50.560;17.852;2022-12-31T15:48:17;99636.34;;;11.83;85.10
21728;BME280;11026;50.560;17.852;2022-12-31T15:50:48;99641.25;;;11.72;85.73
21728;BME280;11026;50.560;17.852;2022-12-31T15:53:40;99644.06;;;11.69;86.27
21728;BME280;11026;50.560;17.852;2022-12-31T15:56:23;99635.31;;;11.48;87.49
21728;BME280;11026;50.560;17.852;2022-12-31T15:58:56;99631.53;;;11.53;86.87
21728;BME280;11026;50.560;17.852;2022-12-31T16:01:34;99628.78;;;11.36;87.76
21728;BME280;11026;50.560;17.852;2022-12-31T16:04:28;99648.22;;;11.37;88.18
21728;BME280;11026;50.560;17.852;2022-12-31T16:06:58;99644.47;;;11.01;89.63
21728;BME280;11026;50.560;17.852;2022-12-31T16:09:31;99642.63;;;11.03;89.96
21728;BME280;11026;50.560;17.852;2022-12-31T16:12:11;99640.47;;;11.12;91.06
21728;BME280;11026;50.560;17.852;2022-12-31T16:14:43;99635.59;;;11.42;91.12
21728;BME280;11026;50.560;17.852;2022-12-31T16:17:33;99644.00;;;11.70;90.01
21728;BME280;11026;50.560;17.852;2022-12-31T16:20:20;99650.44;;;12.02;89.82
21728;BME280;11026;50.560;17.852;2022-12-31T16:22:55;99645.22;;;12.37;88.27
21728;BME280;11026;50.560;17.852;2022-12-31T16:25:28;99653.81;;;12.77;86.28
21728;BME280;11026;50.560;17.852;2022-12-31T16:28:00;99646.59;;;13.14;84.11
21728;BME280;11026;50.560;17.852;2022-12-31T16:30:32;99655.28;;;13.35;82.18
21728;BME280;11026;50.560;17.852;2022-12-31T16:33:04;99654.53;;;13.48;80.90
21728;BME280;11026;50.560;17.852;2022-12-31T16:35:36;99649.00;;;13.69;79.81
21728;BME280;11026;50.560;17.852;2022-12-31T16:40:42;99644.22;;;13.91;78.07
21728;BME280;11026;50.560;17.852;2022-12-31T16:43:36;99641.72;;;14.04;77.29
21728;BME280;11026;50.560;17.852;2022-12-31T16:46:24;99639.56;;;14.11;76.90
21728;BME280;11026;50.560;17.852;2022-12-31T16:49:00;99639.44;;;14.28;75.94
21728;BME280;11026;50.560;17.852;2022-12-31T16:51:31;99649.59;;;14.37;75.45
21728;BME280;11026;50.560;17.852;2022-12-31T16:54:00;99650.34;;;14.39;75.12
21728;BME280;11026;50.560;17.852;2022-12-31T16:56:37;99660.44;;;14.48;74.65
21728;BME280;11026;50.560;17.852;2022-12-31T16:59:13;99655.13;;;14.48;74.26
21728;BME280;11026;50.560;17.852;2022-12-31T17:01:45;99672.84;;;14.49;74.47
21728;BME280;11026;50.560;17.852;2022-12-31T17:04:18;99679.03;;;14.50;74.04